sensor_id;sensor_type;location;lat;lon;timestamp;pressure;altitude;pressure_sealevel;temperature;humidity
62942;BME280;49042;47.318;19.874;2024-03-17T00:01:03;100691.37;;;9.26;100.00
62942;BME280;49042;47.318;19.874;2024-03-17T00:04:04;100694.25;;;9.32;100.00
62942;BME280;49042;47.318;19.874;2024-03-17T00:07:05;100702.69;;;9.27;100.00
62942;BME280;49042;47.318;19.874;2024-03-17T00:10:06;100700.28;;;9.31;100.00
62942;BME280;49042;47.318;19.874;2024-03-17T00:13:11;100692.34;;;9.28;100.00
62942;BME280;49042;47.318;19.874;2024-03-17T00:16:11;100702.25;;;9.16;100.00
62942;BME280;49042;47.318;19.874;2024-03-17T00:19:14;100696.03;;;9.12;100.00
62942;BME280;49042;47.318;19.874;2024-03-17T00:22:15;100698.59;;;9.10;100.00
62942;BME280;49042;47.318;19.874;2024-03-17T00:25:16;100691.47;;;9.06;100.00
62942;BME280;49042;47.318;19.874;2024-03-17T00:28:17;100704.69;;;9.11;100.00
62942;BME280;49042;47.318;19.874;2024-03-17T00:31:18;100698.59;;;9.10;100.00
62942;BME280;49042;47.318;19.874;2024-03-17T00:34:19;100701.44;;;9.17;100.00
62942;BME280;49042;47.318;19.874;2024-03-17T00:37:19;100706.75;;;9.20;100.00
62942;BME280;49042;47.318;19.874;2024-03-17T00:40:20;100703.38;;;9.23;100.00
62942;BME280;49042;47.318;19.874;2024-03-17T00:43:21;100695.28;;;9.36;100.00
62942;BME280;49042;47.318;19.874;2024-03-17T00:46:22;100693.84;;;9.45;100.00
62942;BME280;49042;47.318;19.874;2024-03-17T00:49:23;100699.28;;;9.51;100.00
62942;BME280;49042;47.318;19.874;2024-03-17T00:52:24;100697.34;;;9.45;100.00
62942;BME280;49042;47.318;19.874;2024-03-17T00:55:24;100697.53;;;9.50;100.00
62942;BME280;49042;47.318;19.874;2024-03-17T00:58:25;100685.69;;;9.58;100.00
62942;BME280;49042;47.318;19.874;2024-03-17T01:01:26;100688.19;;;9.55;100.00
62942;BME280;49042;47.318;19.874;2024-03-17T01:04:27;100687.59;;;9.62;100.00
62942;BME280;49042;47.318;19.874;2024-03-17T01:07:28;100681.97;;;9.51;100.00
62942;BME280;49042;47.318;19.874;2024-03-17T01:10:30;100688.19;;;9.55;100.00
62942;BME280;49042;47.318;19.874;2024-03-17T01:13:31;100688.84;;;9.49;100.00
62942;BME280;49042;47.318;19.874;2024-03-17T01:16:32;100685.50;;;9.30;100.00
62942;BME280;49042;47.318;19.874;2024-03-17T01:19:32;100689.22;;;9.37;100.00
62942;BME280;49042;47.318;19.874;2024-03-17T01:22:33;100679.91;;;9.42;100.00
62942;BME280;49042;47.318;19.874;2024-03-17T01:25:34;100683.31;;;9.41;100.00
62942;BME280;49042;47.318;19.874;2024-03-17T01:28:37;100682.31;;;9.38;100.00
62942;BME280;49042;47.318;19.874;2024-03-17T01:31:38;100684.44;;;9.25;100.00
62942;BME280;49042;47.318;19.874;2024-03-17T01:34:39;100680.03;;;9.24;100.00
62942;BME280;49042;47.318;19.874;2024-03-17T01:37:40;100675.41;;;9.17;100.00
62942;BME280;49042;47.318;19.874;2024-03-17T01:40:41;100667.28;;;9.09;100.00
62942;BME280;49042;47.318;19.874;2024-03-17T01:43:42;100667.37;;;8.89;100.00
62942;BME280;49042;47.318;19.874;2024-03-17T01:46:43;100670.41;;;9.00;100.00
62942;BME280;49042;47.318;19.874;2024-03-17T01:49:47;100654.41;;;9.12;100.00
62942;BME280;49042;47.318;19.874;2024-03-17T01:52:48;100667.84;;;9.02;100.00
62942;BME280;49042;47.318;19.874;2024-03-17T01:55:49;100663.06;;;9.11;100.00
62942;BME280;49042;47.318;19.874;2024-03-17T01:58:50;100675.62;;;9.00;100.00
62942;BME280;49042;47.318;19.874;2024-03-17T02:01:51;100671.19;;;8.97;100.00
62942;BME280;49042;47.318;19.874;2024-03-17T02:04:51;100671.41;;;8.82;100.00
62942;BME280;49042;47.318;19.874;2024-03-17T02:07:53;100672.88;;;8.75;100.00
62942;BME280;49042;47.318;19.874;2024-03-17T02:10:54;100675.94;;;8.86;100.00
62942;BME280;49042;47.318;19.874;2024-03-17T02:13:56;100679.72;;;8.73;100.00
62942;BME280;49042;47.318;19.874;2024-03-17T02:16:56;100682.06;;;8.88;100.00
62942;BME280;49042;47.318;19.874;2024-03-17T02:19:57;100675.59;;;8.78;100.00
62942;BME280;49042;47.318;19.874;2024-03-17T02:22:58;100674.78;;;8.60;100.00
62942;BME280;49042;47.318;19.874;2024-03-17T02:25:59;100674.00;;;8.61;100.00
62942;BME280;49042;47.318;19.874;2024-03-17T02:28:59;100681.50;;;8.54;100.00
62942;BME280;49042;47.318;19.874;2024-03-17T02:32:01;100667.66;;;8.55;100.00
62942;BME280;49042;47.318;19.874;2024-03-17T02:35:07;100673.22;;;8.43;100.00
62942;BME280;49042;47.318;19.874;2024-03-17T02:38:09;100674.81;;;8.40;100.00
62942;BME280;49042;47.318;19.874;2024-03-17T02:41:16;100675.09;;;8.26;100.00
62942;BME280;49042;47.318;19.874;2024-03-17T02:44:17;100679.84;;;8.17;100.00
62942;BME280;49042;47.318;19.874;2024-03-17T02:47:17;100677.66;;;8.06;100.00
62942;BME280;49042;47.318;19.874;2024-03-17T02:50:18;100667.50;;;7.91;100.00
62942;BME280;49042;47.318;19.874;2024-03-17T02:53:19;100678.44;;;8.03;100.00
62942;BME280;49042;47.318;19.874;2024-03-17T02:56:20;100671.25;;;8.18;100.00
62942;BME280;49042;47.318;19.874;2024-03-17T02:59:21;100675.97;;;8.07;100.00
62942;BME280;49042;47.318;19.874;2024-03-17T03:02:22;100673.31;;;8.05;100.00
62942;BME280;49042;47.318;19.874;2024-03-17T03:05:23;100672.41;;;8.05;100.00
62942;BME280;49042;47.318;19.874;2024-03-17T03:08:24;100681.69;;;7.99;100.00
62942;BME280;49042;47.318;19.874;2024-03-17T03:11:24;100674.75;;;7.98;100.00
62942;BME280;49042;47.318;19.874;2024-03-17T03:14:25;100676.44;;;7.98;100.00
62942;BME280;49042;47.318;19.874;2024-03-17T03:17:26;100677.03;;;7.72;100.00
62942;BME280;49042;47.318;19.874;2024-03-17T03:20:27;100678.19;;;7.79;100.00
62942;BME280;49042;47.318;19.874;2024-03-17T03:23:28;100683.47;;;7.80;100.00
62942;BME280;49042;47.318;19.874;2024-03-17T03:26:29;100679.97;;;7.80;100.00
62942;BME280;49042;47.318;19.874;2024-03-17T03:29:30;100678.59;;;7.88;100.00
62942;BME280;49042;47.318;19.874;2024-03-17T03:32:30;100673.84;;;7.98;100.00
62942;BME280;49042;47.318;19.874;2024-03-17T03:35:31;100678.56;;;8.07;100.00
62942;BME280;49042;47.318;19.874;2024-03-17T03:38:32;100684.16;;;7.96;100.00
62942;BME280;49042;47.318;19.874;2024-03-17T03:41:33;100693.06;;;8.01;100.00
62942;BME280;49042;47.318;19.874;2024-03-17T03:44:34;100687.56;;;7.95;100.00
62942;BME280;49042;47.318;19.874;2024-03-17T03:47:35;100695.44;;;7.97;100.00
62942;BME280;49042;47.318;19.874;2024-03-17T03:50:37;100689.00;;;7.88;100.00
62942;BME280;49042;47.318;19.874;2024-03-17T03:53:38;100697.09;;;7.95;100.00
62942;BME280;49042;47.318;19.874;2024-03-17T03:56:40;100694.78;;;8.01;100.00
62942;BME280;49042;47.318;19.874;2024-03-17T03:59:40;100694.63;;;8.18;100.00
62942;BME280;49042;47.318;19.874;2024-03-17T04:02:44;100703.81;;;8.29;100.00
62942;BME280;49042;47.318;19.874;2024-03-17T04:05:45;100692.03;;;8.18;100.00
62942;BME280;49042;47.318;19.874;2024-03-17T04:08:46;100696.81;;;8.28;100.00
62942;BME280;49042;47.318;19.874;2024-03-17T04:11:46;100701.87;;;8.25;100.00
62942;BME280;49042;47.318;19.874;2024-03-17T04:14:47;100710.09;;;8.34;100.00
62942;BME280;49042;47.318;19.874;2024-03-17T04:17:53;100703.19;;;8.55;100.00
62942;BME280;49042;47.318;19.874;2024-03-17T04:20:54;100699.00;;;8.39;100.00
62942;BME280;49042;47.318;19.874;2024-03-17T04:23:55;100701.56;;;8.37;100.00
62942;BME280;49042;47.318;19.874;2024-03-17T04:26:55;100710.84;;;8.32;100.00
62942;BME280;49042;47.318;19.874;2024-03-17T04:29:59;100708.75;;;8.23;100.00
62942;BME280;49042;47.318;19.874;2024-03-17T04:33:00;100708.31;;;8.13;100.00
62942;BME280;49042;47.318;19.874;2024-03-17T04:36:00;100700.25;;;8.07;100.00
62942;BME280;49042;47.318;19.874;2024-03-17T04:39:02;100713.22;;;8.07;100.00
62942;BME280;49042;47.318;19.874;2024-03-17T04:42:05;100708.25;;;8.12;100.00
62942;BME280;49042;47.318;19.874;2024-03-17T04:45:07;100709.16;;;8.12;100.00
62942;BME280;49042;47.318;19.874;2024-03-17T04:48:09;100711.56;;;8.09;100.00
62942;BME280;49042;47.318;19.874;2024-03-17T04:51:15;100718.37;;;8.06;100.00
62942;BME280;49042;47.318;19.874;2024-03-17T04:54:16;100721.91;;;8.08;100.00
62942;BME280;49042;47.318;19.874;2024-03-17T04:57:16;100722.88;;;8.10;100.00
62942;BME280;49042;47.318;19.874;2024-03-17T05:00:17;100723.41;;;8.02;100.00
62942;BME280;49042;47.318;19.874;2024-03-17T05:03:19;100727.12;;;8.08;100.00
62942;BME280;49042;47.318;19.874;2024-03-17T05:06:20;100725.94;;;8.01;100.00
62942;BME280;49042;47.318;19.874;2024-03-17T05:09:20;100721.97;;;8.09;100.00
62942;BME280;49042;47.318;19.874;2024-03-17T05:12:21;100717.00;;;8.34;100.00
62942;BME280;49042;47.318;19.874;2024-03-17T05:15:22;100722.63;;;8.43;100.00
62942;BME280;49042;47.318;19.874;2024-03-17T05:18:26;100716.31;;;8.38;100.00
62942;BME280;49042;47.318;19.874;2024-03-17T05:21:27;100721.87;;;8.46;100.00
62942;BME280;49042;47.318;19.874;2024-03-17T05:24:30;100726.94;;;8.63;100.00
62942;BME280;49042;47.318;19.874;2024-03-17T05:27:31;100733.03;;;8.63;100.00
62942;BME280;49042;47.318;19.874;2024-03-17T05:30:36;100726.94;;;8.83;100.00
62942;BME280;49042;47.318;19.874;2024-03-17T05:33:36;100720.06;;;8.85;100.00
62942;BME280;49042;47.318;19.874;2024-03-17T05:36:37;100729.50;;;9.03;100.00
62942;BME280;49042;47.318;19.874;2024-03-17T05:39:38;100729.03;;;9.13;100.00
62942;BME280;49042;47.318;19.874;2024-03-17T05:42:41;100738.31;;;9.28;100.00
62942;BME280;49042;47.318;19.874;2024-03-17T05:45:42;100742.19;;;9.16;100.00
62942;BME280;49042;47.318;19.874;2024-03-17T05:48:44;100743.28;;;9.43;100.00
62942;BME280;49042;47.318;19.874;2024-03-17T05:51:45;100741.59;;;9.45;100.00
62942;BME280;49042;47.318;19.874;2024-03-17T05:54:45;100738.22;;;9.48;100.00
62942;BME280;49042;47.318;19.874;2024-03-17T05:57:46;100740.22;;;9.53;100.00
62942;BME280;49042;47.318;19.874;2024-03-17T06:00:47;100731.84;;;9.39;100.00
62942;BME280;49042;47.318;19.874;2024-03-17T06:03:47;100732.56;;;9.58;100.00
62942;BME280;49042;47.318;19.874;2024-03-17T06:06:48;100712.25;;;10.18;100.00
62942;BME280;49042;47.318;19.874;2024-03-17T06:09:49;100712.34;;;10.69;100.00
62942;BME280;49042;47.318;19.874;2024-03-17T06:12:50;100714.56;;;11.65;100.00
62942;BME280;49042;47.318;19.874;2024-03-17T06:15:51;100707.81;;;11.73;100.00
62942;BME280;49042;47.318;19.874;2024-03-17T06:18:52;100701.16;;;11.83;100.00
62942;BME280;49042;47.318;19.874;2024-03-17T06:21:53;100715.69;;;11.18;100.00
62942;BME280;49042;47.318;19.874;2024-03-17T06:24:54;100722.25;;;10.80;100.00
62942;BME280;49042;47.318;19.874;2024-03-17T06:27:55;100721.00;;;11.76;100.00
62942;BME280;49042;47.318;19.874;2024-03-17T06:30:58;100714.25;;;13.49;100.00
62942;BME280;49042;47.318;19.874;2024-03-17T06:33:59;100728.37;;;14.38;92.20
62942;BME280;49042;47.318;19.874;2024-03-17T06:37:00;100721.03;;;15.15;84.31
62942;BME280;49042;47.318;19.874;2024-03-17T06:40:02;100722.91;;;15.83;71.82
62942;BME280;49042;47.318;19.874;2024-03-17T06:43:04;100719.63;;;16.00;71.42
62942;BME280;49042;47.318;19.874;2024-03-17T06:46:05;100724.47;;;16.37;65.84
62942;BME280;49042;47.318;19.874;2024-03-17T06:49:06;100716.84;;;15.90;62.44
62942;BME280;49042;47.318;19.874;2024-03-17T06:52:07;100721.69;;;15.03;69.36
62942;BME280;49042;47.318;19.874;2024-03-17T06:55:08;100720.03;;;16.31;65.45
62942;BME280;49042;47.318;19.874;2024-03-17T06:58:09;100728.84;;;16.36;59.75
62942;BME280;49042;47.318;19.874;2024-03-17T07:01:10;100720.56;;;16.05;60.31
62942;BME280;49042;47.318;19.874;2024-03-17T07:04:10;100720.25;;;16.50;54.97
62942;BME280;49042;47.318;19.874;2024-03-17T07:07:11;100717.34;;;16.25;56.67
62942;BME280;49042;47.318;19.874;2024-03-17T07:10:12;100728.75;;;17.16;54.38
62942;BME280;49042;47.318;19.874;2024-03-17T07:13:14;100722.34;;;18.20;50.45
62942;BME280;49042;47.318;19.874;2024-03-17T07:16:14;100714.47;;;18.22;47.91
62942;BME280;49042;47.318;19.874;2024-03-17T07:19:15;100719.66;;;18.09;48.55
62942;BME280;49042;47.318;19.874;2024-03-17T07:22:16;100728.72;;;19.06;46.41
62942;BME280;49042;47.318;19.874;2024-03-17T07:25:16;100723.47;;;19.23;43.56
62942;BME280;49042;47.318;19.874;2024-03-17T07:28:17;100719.91;;;18.76;43.20
62942;BME280;49042;47.318;19.874;2024-03-17T07:31:18;100730.09;;;17.80;45.50
62942;BME280;49042;47.318;19.874;2024-03-17T07:34:18;100733.62;;;17.80;46.30
62942;BME280;49042;47.318;19.874;2024-03-17T07:37:19;100729.53;;;18.44;44.15
62942;BME280;49042;47.318;19.874;2024-03-17T07:40:20;100724.22;;;19.96;42.07
62942;BME280;49042;47.318;19.874;2024-03-17T07:43:21;100736.84;;;21.08;39.32
62942;BME280;49042;47.318;19.874;2024-03-17T07:46:21;100728.87;;;22.68;36.56
62942;BME280;49042;47.318;19.874;2024-03-17T07:49:22;100741.06;;;23.37;35.17
62942;BME280;49042;47.318;19.874;2024-03-17T07:52:23;100739.06;;;22.98;35.57
62942;BME280;49042;47.318;19.874;2024-03-17T07:55:23;100727.69;;;22.89;35.42
62942;BME280;49042;47.318;19.874;2024-03-17T07:58:25;100727.59;;;22.32;35.05
62942;BME280;49042;47.318;19.874;2024-03-17T08:01:26;100738.72;;;22.61;35.12
62942;BME280;49042;47.318;19.874;2024-03-17T08:04:27;100738.41;;;22.17;35.45
62942;BME280;49042;47.318;19.874;2024-03-17T08:07:28;100736.69;;;22.12;36.38
62942;BME280;49042;47.318;19.874;2024-03-17T08:10:28;100736.97;;;22.58;34.97
62942;BME280;49042;47.318;19.874;2024-03-17T08:13:32;100748.69;;;23.07;33.82
62942;BME280;49042;47.318;19.874;2024-03-17T08:16:35;100739.63;;;22.58;32.95
62942;BME280;49042;47.318;19.874;2024-03-17T08:19:36;100733.97;;;23.87;32.34
62942;BME280;49042;47.318;19.874;2024-03-17T08:22:36;100732.63;;;24.90;30.71
62942;BME280;49042;47.318;19.874;2024-03-17T08:25:37;100735.31;;;23.62;31.64
62942;BME280;49042;47.318;19.874;2024-03-17T08:28:38;100735.94;;;23.75;31.55
62942;BME280;49042;47.318;19.874;2024-03-17T08:31:39;100735.75;;;26.08;29.72
62942;BME280;49042;47.318;19.874;2024-03-17T08:34:39;100748.59;;;25.97;29.13
62942;BME280;49042;47.318;19.874;2024-03-17T08:37:40;100741.94;;;24.71;30.28
62942;BME280;49042;47.318;19.874;2024-03-17T08:40:41;100742.16;;;25.00;29.50
62942;BME280;49042;47.318;19.874;2024-03-17T08:43:45;100745.25;;;23.52;30.68
62942;BME280;49042;47.318;19.874;2024-03-17T08:46:46;100743.22;;;24.55;30.05
62942;BME280;49042;47.318;19.874;2024-03-17T08:49:50;100750.62;;;25.87;29.52
62942;BME280;49042;47.318;19.874;2024-03-17T08:52:51;100749.37;;;25.67;27.60
62942;BME280;49042;47.318;19.874;2024-03-17T08:55:53;100756.41;;;26.34;26.32
62942;BME280;49042;47.318;19.874;2024-03-17T08:58:53;100769.63;;;25.06;27.75
62942;BME280;49042;47.318;19.874;2024-03-17T09:01:54;100766.50;;;24.46;28.83
62942;BME280;49042;47.318;19.874;2024-03-17T09:04:55;100773.84;;;25.85;26.59
62942;BME280;49042;47.318;19.874;2024-03-17T09:07:56;100773.91;;;26.44;27.10
62942;BME280;49042;47.318;19.874;2024-03-17T09:10:56;100771.53;;;26.35;26.50
62942;BME280;49042;47.318;19.874;2024-03-17T09:13:57;100764.69;;;27.91;24.95
62942;BME280;49042;47.318;19.874;2024-03-17T09:16:59;100767.25;;;26.88;25.31
62942;BME280;49042;47.318;19.874;2024-03-17T09:20:00;100768.72;;;26.70;25.98
62942;BME280;49042;47.318;19.874;2024-03-17T09:23:00;100768.03;;;26.92;25.17
62942;BME280;49042;47.318;19.874;2024-03-17T09:26:03;100769.75;;;28.92;23.41
62942;BME280;49042;47.318;19.874;2024-03-17T09:29:04;100762.47;;;28.27;23.82
62942;BME280;49042;47.318;19.874;2024-03-17T09:32:05;100767.75;;;27.80;24.43
62942;BME280;49042;47.318;19.874;2024-03-17T09:35:06;100771.28;;;28.30;24.35
62942;BME280;49042;47.318;19.874;2024-03-17T09:38:07;100766.88;;;29.19;22.98
62942;BME280;49042;47.318;19.874;2024-03-17T09:41:24;100775.53;;;28.83;23.23
62942;BME280;49042;47.318;19.874;2024-03-17T09:44:27;100783.06;;;28.95;22.66
62942;BME280;49042;47.318;19.874;2024-03-17T09:47:29;100768.25;;;27.92;23.77
62942;BME280;49042;47.318;19.874;2024-03-17T09:50:31;100775.50;;;28.60;23.00
62942;BME280;49042;47.318;19.874;2024-03-17T09:53:34;100781.12;;;29.85;21.74
62942;BME280;49042;47.318;19.874;2024-03-17T09:56:35;100780.19;;;29.65;21.96
62942;BME280;49042;47.318;19.874;2024-03-17T09:59:35;100779.69;;;29.55;22.35
62942;BME280;49042;47.318;19.874;2024-03-17T10:02:41;100780.44;;;27.49;24.05
62942;BME280;49042;47.318;19.874;2024-03-17T10:05:44;100790.06;;;27.55;23.04
62942;BME280;49042;47.318;19.874;2024-03-17T10:11:47;100788.91;;;26.80;24.43
62942;BME280;49042;47.318;19.874;2024-03-17T10:14:57;100793.72;;;27.25;23.79
62942;BME280;49042;47.318;19.874;2024-03-17T10:17:58;100796.59;;;28.23;23.17
62942;BME280;49042;47.318;19.874;2024-03-17T10:20:59;100792.13;;;27.72;23.66
62942;BME280;49042;47.318;19.874;2024-03-17T10:24:11;100799.78;;;27.57;23.40
62942;BME280;49042;47.318;19.874;2024-03-17T10:27:12;100795.78;;;27.44;23.13
62942;BME280;49042;47.318;19.874;2024-03-17T10:30:18;100783.94;;;28.51;21.77
62942;BME280;49042;47.318;19.874;2024-03-17T10:33:24;100781.59;;;26.86;22.54
62942;BME280;49042;47.318;19.874;2024-03-17T10:36:28;100783.16;;;26.64;23.59
62942;BME280;49042;47.318;19.874;2024-03-17T10:39:29;100790.47;;;27.15;23.46
62942;BME280;49042;47.318;19.874;2024-03-17T10:42:30;100790.47;;;27.42;22.87
62942;BME280;49042;47.318;19.874;2024-03-17T10:45:33;100782.50;;;28.40;22.19
62942;BME280;49042;47.318;19.874;2024-03-17T10:48:39;100769.97;;;27.14;23.16
62942;BME280;49042;47.318;19.874;2024-03-17T10:51:44;100780.13;;;29.24;21.89
62942;BME280;49042;47.318;19.874;2024-03-17T10:54:50;100779.16;;;31.23;20.08
62942;BME280;49042;47.318;19.874;2024-03-17T10:57:54;100787.19;;;30.29;20.27
62942;BME280;49042;47.318;19.874;2024-03-17T11:01:00;100797.13;;;31.76;18.91
62942;BME280;49042;47.318;19.874;2024-03-17T11:04:04;100780.81;;;31.43;19.09
62942;BME280;49042;47.318;19.874;2024-03-17T11:07:05;100792.78;;;30.04;20.03
62942;BME280;49042;47.318;19.874;2024-03-17T11:10:09;100789.75;;;30.12;19.30
62942;BME280;49042;47.318;19.874;2024-03-17T11:13:31;100780.09;;;31.39;19.21
62942;BME280;49042;47.318;19.874;2024-03-17T11:16:32;100780.44;;;30.20;19.98
62942;BME280;49042;47.318;19.874;2024-03-17T11:19:33;100778.88;;;31.45;19.01
62942;BME280;49042;47.318;19.874;2024-03-17T11:22:43;100782.56;;;31.08;18.37
62942;BME280;49042;47.318;19.874;2024-03-17T11:25:51;100784.94;;;31.15;19.23
62942;BME280;49042;47.318;19.874;2024-03-17T11:28:52;100786.97;;;29.74;19.86
62942;BME280;49042;47.318;19.874;2024-03-17T11:31:53;100774.66;;;30.49;19.19
62942;BME280;49042;47.318;19.874;2024-03-17T11:35:13;100780.91;;;31.06;18.97
62942;BME280;49042;47.318;19.874;2024-03-17T11:41:53;100773.44;;;31.11;18.50
62942;BME280;49042;47.318;19.874;2024-03-17T11:45:01;100785.75;;;34.36;16.61
62942;BME280;49042;47.318;19.874;2024-03-17T11:48:06;100793.22;;;33.73;16.96
62942;BME280;49042;47.318;19.874;2024-03-17T11:51:13;100780.34;;;32.69;16.70
62942;BME280;49042;47.318;19.874;2024-03-17T11:54:15;100780.19;;;31.90;17.38
62942;BME280;49042;47.318;19.874;2024-03-17T11:57:23;100769.72;;;31.14;17.84
62942;BME280;49042;47.318;19.874;2024-03-17T12:00:24;100763.53;;;30.56;18.30
62942;BME280;49042;47.318;19.874;2024-03-17T12:03:26;100767.78;;;32.03;17.83
62942;BME280;49042;47.318;19.874;2024-03-17T12:06:27;100769.88;;;31.64;17.92
62942;BME280;49042;47.318;19.874;2024-03-17T12:09:29;100765.69;;;33.52;15.94
62942;BME280;49042;47.318;19.874;2024-03-17T12:12:31;100755.16;;;30.81;17.08
62942;BME280;49042;47.318;19.874;2024-03-17T12:15:35;100745.03;;;32.58;16.50
62942;BME280;49042;47.318;19.874;2024-03-17T12:18:36;100745.75;;;30.89;17.06
62942;BME280;49042;47.318;19.874;2024-03-17T12:21:43;100753.53;;;32.01;16.75
62942;BME280;49042;47.318;19.874;2024-03-17T12:24:45;100749.97;;;30.95;17.03
62942;BME280;49042;47.318;19.874;2024-03-17T12:27:47;100746.69;;;33.22;15.04
62942;BME280;49042;47.318;19.874;2024-03-17T12:30:49;100736.53;;;30.19;17.05
62942;BME280;49042;47.318;19.874;2024-03-17T12:33:50;100736.97;;;29.69;17.69
62942;BME280;49042;47.318;19.874;2024-03-17T12:36:54;100750.22;;;33.08;15.34
62942;BME280;49042;47.318;19.874;2024-03-17T12:39:55;100741.87;;;32.17;15.63
62942;BME280;49042;47.318;19.874;2024-03-17T12:42:58;100732.66;;;34.05;14.59
62942;BME280;49042;47.318;19.874;2024-03-17T12:45:59;100735.06;;;29.31;16.98
62942;BME280;49042;47.318;19.874;2024-03-17T12:49:00;100731.25;;;30.18;17.06
62942;BME280;49042;47.318;19.874;2024-03-17T12:52:01;100724.75;;;30.02;16.84
62942;BME280;49042;47.318;19.874;2024-03-17T12:55:07;100731.13;;;30.58;16.09
62942;BME280;49042;47.318;19.874;2024-03-17T12:58:26;100728.59;;;26.70;18.57
62942;BME280;49042;47.318;19.874;2024-03-17T13:01:45;100736.03;;;29.07;17.62
62942;BME280;49042;47.318;19.874;2024-03-17T13:04:46;100729.94;;;29.46;17.15
62942;BME280;49042;47.318;19.874;2024-03-17T13:07:47;100735.66;;;29.17;16.64
62942;BME280;49042;47.318;19.874;2024-03-17T13:10:48;100722.88;;;31.52;16.00
62942;BME280;49042;47.318;19.874;2024-03-17T13:13:49;100733.13;;;31.27;15.59
62942;BME280;49042;47.318;19.874;2024-03-17T13:16:49;100721.25;;;30.39;16.30
62942;BME280;49042;47.318;19.874;2024-03-17T13:19:50;100728.19;;;30.06;16.13
62942;BME280;49042;47.318;19.874;2024-03-17T13:22:51;100725.31;;;26.89;17.32
62942;BME280;49042;47.318;19.874;2024-03-17T13:25:52;100732.47;;;27.93;17.61
62942;BME280;49042;47.318;19.874;2024-03-17T13:28:52;100720.34;;;28.30;17.42
62942;BME280;49042;47.318;19.874;2024-03-17T13:31:53;100727.72;;;25.76;19.18
62942;BME280;49042;47.318;19.874;2024-03-17T13:34:54;100728.00;;;23.23;21.53
62942;BME280;49042;47.318;19.874;2024-03-17T13:37:56;100728.78;;;21.22;23.07
62942;BME280;49042;47.318;19.874;2024-03-17T13:41:00;100711.97;;;19.13;24.86
62942;BME280;49042;47.318;19.874;2024-03-17T13:44:01;100725.22;;;19.34;26.30
62942;BME280;49042;47.318;19.874;2024-03-17T13:47:02;100715.53;;;19.25;24.85
62942;BME280;49042;47.318;19.874;2024-03-17T13:50:04;100715.50;;;19.14;25.95
62942;BME280;49042;47.318;19.874;2024-03-17T13:53:11;100711.09;;;18.86;25.49
62942;BME280;49042;47.318;19.874;2024-03-17T13:56:12;100704.00;;;18.50;25.25
62942;BME280;49042;47.318;19.874;2024-03-17T13:59:14;100715.50;;;18.90;28.15
62942;BME280;49042;47.318;19.874;2024-03-17T14:02:15;100705.81;;;19.08;25.61
62942;BME280;49042;47.318;19.874;2024-03-17T14:05:17;100702.16;;;19.91;25.09
62942;BME280;49042;47.318;19.874;2024-03-17T14:08:18;100702.94;;;20.12;25.09
62942;BME280;49042;47.318;19.874;2024-03-17T14:11:19;100711.09;;;18.89;25.97
62942;BME280;49042;47.318;19.874;2024-03-17T14:14:20;100710.94;;;18.22;26.87
62942;BME280;49042;47.318;19.874;2024-03-17T14:17:20;100696.00;;;18.25;27.56
62942;BME280;49042;47.318;19.874;2024-03-17T14:20:21;100694.34;;;19.50;25.62
62942;BME280;49042;47.318;19.874;2024-03-17T14:23:22;100698.47;;;20.31;23.57
62942;BME280;49042;47.318;19.874;2024-03-17T14:26:23;100696.28;;;21.87;22.56
62942;BME280;49042;47.318;19.874;2024-03-17T14:29:23;100701.69;;;21.77;22.47
62942;BME280;49042;47.318;19.874;2024-03-17T14:32:24;100696.69;;;21.50;22.69
62942;BME280;49042;47.318;19.874;2024-03-17T14:35:25;100697.34;;;21.70;23.54
62942;BME280;49042;47.318;19.874;2024-03-17T14:38:27;100697.69;;;20.04;24.64
62942;BME280;49042;47.318;19.874;2024-03-17T14:41:31;100688.09;;;19.68;26.39
62942;BME280;49042;47.318;19.874;2024-03-17T14:44:34;100687.19;;;19.80;26.52
62942;BME280;49042;47.318;19.874;2024-03-17T14:47:35;100687.31;;;19.24;26.69
62942;BME280;49042;47.318;19.874;2024-03-17T14:50:36;100683.72;;;18.45;27.17
62942;BME280;49042;47.318;19.874;2024-03-17T14:53:38;100680.19;;;19.72;25.94
62942;BME280;49042;47.318;19.874;2024-03-17T14:56:43;100686.97;;;20.39;24.87
62942;BME280;49042;47.318;19.874;2024-03-17T14:59:48;100685.31;;;20.16;25.05
62942;BME280;49042;47.318;19.874;2024-03-17T15:02:51;100681.16;;;18.65;27.38
62942;BME280;49042;47.318;19.874;2024-03-17T15:05:52;100682.66;;;17.91;29.39
62942;BME280;49042;47.318;19.874;2024-03-17T15:08:52;100680.81;;;17.72;29.24
62942;BME280;49042;47.318;19.874;2024-03-17T15:11:53;100676.41;;;17.68;28.27
62942;BME280;49042;47.318;19.874;2024-03-17T15:14:54;100686.41;;;18.64;27.70
62942;BME280;49042;47.318;19.874;2024-03-17T15:17:55;100686.44;;;19.23;26.43
62942;BME280;49042;47.318;19.874;2024-03-17T15:20:56;100688.56;;;20.60;24.55
62942;BME280;49042;47.318;19.874;2024-03-17T15:23:57;100692.56;;;21.18;24.19
62942;BME280;49042;47.318;19.874;2024-03-17T15:26:59;100690.94;;;20.96;24.17
62942;BME280;49042;47.318;19.874;2024-03-17T15:29:59;100680.78;;;21.46;24.14
62942;BME280;49042;47.318;19.874;2024-03-17T15:33:00;100688.97;;;19.75;25.01
62942;BME280;49042;47.318;19.874;2024-03-17T15:36:01;100693.28;;;18.11;27.08
62942;BME280;49042;47.318;19.874;2024-03-17T15:39:04;100696.88;;;16.85;28.44
62942;BME280;49042;47.318;19.874;2024-03-17T15:42:06;100694.63;;;16.36;29.80
62942;BME280;49042;47.318;19.874;2024-03-17T15:45:07;100698.94;;;16.28;30.77